Time;durP1;ratioP1;P1;durP2;ratioP2;P2;SDS_P1;SDS_P2;PMS_P1;PMS_P2;Temp;Humidity;BMP_temperature;BMP_pressure;BME280_temperature;BME280_humidity;BME280_pressure;Samples;Min_cycle;Max_cycle;Signal;HPM_P1;HPM_P2
2022/08/31 00:05:02;;;;;;;17.08;15.50;;;;;;;20.83;63.35;94939.06;5009355;28;20585;-70
2022/08/31 00:07:30;;;;;;;16.63;15.10;;;;;;;20.89;63.08;94943.53;5007853;28;20229;-70
2022/08/31 00:09:55;;;;;;;16.02;14.52;;;;;;;20.82;63.04;94937.41;5006260;28;20227;-70
2022/08/31 00:12:21;;;;;;;17.17;15.63;;;;;;;20.82;63.13;94942.75;5017734;28;20198;-71
2022/08/31 00:14:47;;;;;;;16.05;14.48;;;;;;;20.80;62.95;94945.66;5008917;28;20703;-71
2022/08/31 00:17:13;;;;;;;16.38;14.65;;;;;;;20.75;63.36;94950.03;5005042;28;20246;-70
2022/08/31 00:19:38;;;;;;;16.90;15.38;;;;;;;20.83;63.25;94945.22;5002480;28;20228;-68
2022/08/31 00:22:04;;;;;;;16.40;14.82;;;;;;;20.78;63.25;94939.72;5008489;28;20226;-69
2022/08/31 00:24:30;;;;;;;16.00;14.65;;;;;;;20.84;63.03;94943.38;5010735;28;20206;-68
2022/08/31 00:26:56;;;;;;;16.80;15.18;;;;;;;20.75;62.88;94942.81;5008701;28;20248;-69
2022/08/31 00:29:22;;;;;;;17.63;15.48;;;;;;;20.77;62.65;94940.75;5009336;28;20227;-69
2022/08/31 00:31:47;;;;;;;15.43;13.95;;;;;;;20.78;62.50;94938.91;5005355;28;20678;-70
2022/08/31 00:34:13;;;;;;;15.52;14.07;;;;;;;20.63;62.29;94940.00;5003817;28;20226;-69
2022/08/31 00:36:38;;;;;;;15.68;14.05;;;;;;;20.54;62.92;94938.63;5006112;28;20234;-69
2022/08/31 00:39:05;;;;;;;15.82;14.35;;;;;;;20.66;62.80;94950.28;5008211;28;20210;-69
2022/08/31 00:41:35;;;;;;;16.52;15.02;;;;;;;20.65;63.10;94948.63;5008877;28;20222;-69
2022/08/31 00:44:03;;;;;;;17.08;15.38;;;;;;;20.80;62.73;94944.84;5018391;28;20613;-70
2022/08/31 00:46:33;;;;;;;16.55;14.98;;;;;;;20.82;62.73;94948.09;5008834;28;20223;-69
2022/08/31 00:49:06;;;;;;;17.67;15.60;;;;;;;20.77;62.91;94948.78;5025998;28;20261;-69
2022/08/31 00:51:36;;;;;;;16.67;14.60;;;;;;;20.76;63.29;94949.78;5010282;28;20230;-69
2022/08/31 00:54:04;;;;;;;15.43;13.93;;;;;;;20.72;63.21;94950.47;5010301;28;20230;-69
2022/08/31 00:56:32;;;;;;;15.70;14.15;;;;;;;20.68;63.30;94958.88;5010527;28;20222;-70
2022/08/31 00:58:59;;;;;;;15.35;13.88;;;;;;;20.65;63.03;94958.50;5006515;28;20226;-70
2022/08/31 01:01:24;;;;;;;14.70;13.40;;;;;;;20.79;62.54;94951.22;5011743;28;20306;-70
2022/08/31 01:03:50;;;;;;;15.00;13.73;;;;;;;20.89;62.31;94954.22;5010241;28;20337;-69
2022/08/31 01:06:16;;;;;;;15.10;13.65;;;;;;;20.80;62.36;94948.34;5008501;28;20972;-68
2022/08/31 01:08:44;;;;;;;16.42;14.07;;;;;;;20.72;62.83;94950.47;5007637;28;20579;-69
2022/08/31 01:11:10;;;;;;;15.90;14.48;;;;;;;20.79;62.48;94953.88;5011374;28;20284;-69
2022/08/31 01:13:36;;;;;;;15.85;14.30;;;;;;;20.74;62.56;94940.34;5013407;28;20227;-69
2022/08/31 01:16:07;;;;;;;15.50;14.00;;;;;;;20.87;62.24;94951.75;5011065;28;20318;-70
2022/08/31 01:18:33;;;;;;;15.30;13.45;;;;;;;20.90;62.15;94950.50;5009050;28;20235;-69
2022/08/31 01:21:18;;;;;;;16.23;14.73;;;;;;;20.85;62.56;94951.19;5011157;28;20279;-70
2022/08/31 01:23:44;;;;;;;16.00;14.48;;;;;;;20.86;62.45;94952.00;5007385;28;20595;-69
2022/08/31 01:26:15;;;;;;;16.00;14.43;;;;;;;20.79;62.60;94956.56;5006438;28;20229;-69
2022/08/31 01:28:40;;;;;;;16.08;14.63;;;;;;;20.79;62.16;94952.03;5004447;28;20219;-69
2022/08/31 01:31:19;;;;;;;15.90;14.25;;;;;;;20.68;62.27;94945.53;4995881;28;20691;-69
2022/08/31 01:33:45;;;;;;;14.85;13.55;;;;;;;20.69;61.98;94949.03;5011966;28;20217;-69
2022/08/31 01:36:12;;;;;;;15.68;14.23;;;;;;;20.62;62.00;94954.41;5012694;28;20229;-69
2022/08/31 01:38:38;;;;;;;15.40;14.02;;;;;;;20.65;61.79;94951.31;5013487;28;20293;-69
2022/08/31 01:41:05;;;;;;;16.30;14.80;;;;;;;20.68;61.93;94953.53;5009643;28;20230;-70
2022/08/31 01:43:33;;;;;;;16.38;14.88;;;;;;;20.66;62.06;94952.97;5010954;28;20304;-69
2022/08/31 01:46:00;;;;;;;16.38;14.70;;;;;;;20.68;61.90;94956.22;5007214;28;20234;-69
2022/08/31 01:48:26;;;;;;;15.85;14.55;;;;;;;20.57;62.68;94940.88;5012290;28;20214;-69
2022/08/31 01:50:51;;;;;;;16.25;14.80;;;;;;;20.57;63.22;94950.75;5007411;28;20223;-69
2022/08/31 01:53:17;;;;;;;16.88;15.15;;;;;;;20.51;63.21;94946.25;5002455;28;20218;-70
2022/08/31 01:55:43;;;;;;;15.90;14.27;;;;;;;20.39;63.54;94946.09;5009686;28;20324;-69
2022/08/31 01:58:08;;;;;;;16.92;15.38;;;;;;;20.36;63.78;94946.53;5008090;28;20223;-69
2022/08/31 02:00:34;;;;;;;16.65;15.15;;;;;;;20.32;64.33;94945.34;5011727;28;20210;-69
2022/08/31 02:03:01;;;;;;;16.80;15.32;;;;;;;20.31;64.66;94949.00;5007580;28;20199;-69
2022/08/31 02:05:27;;;;;;;17.05;15.60;;;;;;;20.23;65.22;94942.91;5022363;28;20250;-69
2022/08/31 02:07:56;;;;;;;16.88;15.18;;;;;;;20.21;65.33;94952.97;5010666;28;20226;-69
2022/08/31 02:10:22;;;;;;;17.30;15.70;;;;;;;20.28;65.13;94945.72;5012734;28;20223;-69
2022/08/31 02:12:48;;;;;;;16.63;15.07;;;;;;;20.23;65.23;94952.75;5013402;28;20302;-70
2022/08/31 02:15:14;;;;;;;16.83;15.32;;;;;;;19.97;66.01;94943.03;5010654;28;20199;-70
2022/08/31 02:17:40;;;;;;;17.00;15.40;;;;;;;20.00;66.60;94947.94;5005561;28;20241;-69
2022/08/31 02:20:07;;;;;;;16.85;15.45;;;;;;;19.99;66.68;94944.47;5008451;28;20236;-69
2022/08/31 02:22:32;;;;;;;17.65;15.95;;;;;;;20.03;66.54;94948.34;4992365;28;20266;-69
2022/08/31 02:24:58;;;;;;;16.90;15.48;;;;;;;20.00;66.71;94947.94;5010224;28;20680;-69
2022/08/31 02:27:24;;;;;;;18.08;16.48;;;;;;;19.91;67.07;94938.53;5007382;28;20211;-69
2022/08/31 02:29:49;;;;;;;17.10;15.60;;;;;;;19.97;66.81;94945.69;5007794;28;20720;-69
2022/08/31 02:32:15;;;;;;;17.55;15.80;;;;;;;19.93;67.00;94941.81;5012081;28;20373;-69
2022/08/31 02:34:40;;;;;;;17.52;15.70;;;;;;;20.02;66.63;94941.38;5008129;28;20223;-69
2022/08/31 02:37:06;;;;;;;18.50;16.48;;;;;;;20.07;66.32;94942.56;5010498;28;20222;-70
2022/08/31 02:39:32;;;;;;;17.45;15.77;;;;;;;19.96;66.38;94936.03;5009249;28;20211;-69
2022/08/31 02:41:58;;;;;;;17.77;15.95;;;;;;;20.01;66.37;94944.22;5009366;28;20248;-69
2022/08/31 02:44:24;;;;;;;17.83;16.30;;;;;;;19.95;66.07;94942.41;5016266;28;20293;-69
2022/08/31 02:46:49;;;;;;;17.60;16.00;;;;;;;19.82;66.41;94941.44;5009585;28;20306;-70
2022/08/31 02:49:15;;;;;;;17.08;15.57;;;;;;;19.87;66.46;94948.00;5010928;28;20309;-69
2022/08/31 02:51:41;;;;;;;17.10;15.35;;;;;;;19.74;67.08;94941.66;5019540;28;20554;-69
2022/08/31 02:54:07;;;;;;;16.88;15.15;;;;;;;19.64;67.42;94933.25;5010567;28;20544;-69
2022/08/31 02:56:33;;;;;;;17.30;15.68;;;;;;;19.67;67.18;94938.19;5008470;28;20321;-69
2022/08/31 02:59:02;;;;;;;16.52;15.00;;;;;;;19.76;66.54;94941.47;5006785;28;20222;-70
2022/08/31 03:01:28;;;;;;;17.27;15.50;;;;;;;19.74;66.50;94944.34;5026325;28;20730;-69
2022/08/31 03:03:54;;;;;;;16.38;14.88;;;;;;;19.77;66.24;94940.44;5009790;28;20226;-69
2022/08/31 03:06:19;;;;;;;17.35;15.65;;;;;;;19.69;66.39;94944.13;5008790;28;20210;-70
2022/08/31 03:08:46;;;;;;;17.85;16.17;;;;;;;19.66;66.52;94931.22;5007522;28;20226;-69
2022/08/31 03:11:12;;;;;;;17.27;15.68;;;;;;;19.68;66.66;94931.03;5013757;28;20218;-69
2022/08/31 03:13:39;;;;;;;17.17;15.68;;;;;;;19.61;66.88;94931.81;5007499;28;20222;-69
2022/08/31 03:16:05;;;;;;;19.10;17.10;;;;;;;19.57;66.83;94935.94;5017472;28;20231;-69
2022/08/31 03:18:31;;;;;;;17.65;15.85;;;;;;;19.52;67.19;94941.09;5008518;28;20725;-69
2022/08/31 03:20:57;;;;;;;17.30;15.52;;;;;;;19.45;67.52;94944.78;5012446;28;20352;-69
2022/08/31 03:23:23;;;;;;;26.52;17.33;;;;;;;19.42;67.76;94946.03;5009839;28;20306;-70
2022/08/31 03:25:48;;;;;;;25.85;17.35;;;;;;;19.39;67.77;94941.13;5003250;28;20345;-69
2022/08/31 03:28:14;;;;;;;20.83;16.13;;;;;;;19.39;67.36;94941.13;5001905;28;20226;-69
2022/08/31 03:30:40;;;;;;;17.65;15.60;;;;;;;19.44;67.36;94937.84;5004959;28;20207;-69
2022/08/31 03:33:06;;;;;;;20.00;16.30;;;;;;;19.47;67.34;94932.06;5004259;28;20203;-69
2022/08/31 03:35:31;;;;;;;16.63;14.60;;;;;;;19.38;67.76;94929.63;5008382;28;20230;-69
2022/08/31 03:37:57;;;;;;;20.17;16.92;;;;;;;19.46;67.30;94927.75;5008016;28;20226;-69
2022/08/31 03:40:23;;;;;;;25.30;16.70;;;;;;;19.45;67.05;94924.28;5006775;28;20296;-69
2022/08/31 03:42:48;;;;;;;17.50;15.60;;;;;;;19.37;67.34;94937.81;5001162;28;20222;-70
2022/08/31 03:45:14;;;;;;;18.20;16.33;;;;;;;19.28;67.60;94923.91;5010029;28;20306;-71
2022/08/31 03:47:40;;;;;;;16.55;15.07;;;;;;;19.45;67.08;94934.13;5013124;28;20247;-69
2022/08/31 03:50:09;;;;;;;18.60;16.70;;;;;;;19.50;67.08;94928.97;5007796;28;20223;-69
2022/08/31 03:52:34;;;;;;;18.38;16.70;;;;;;;19.55;66.91;94929.19;5014826;28;20229;-70
2022/08/31 03:55:01;;;;;;;17.58;15.75;;;;;;;19.36;67.29;94936.19;5010160;28;20222;-70
2022/08/31 03:57:26;;;;;;;16.90;15.38;;;;;;;19.35;67.47;94930.06;5009620;28;20219;-70
2022/08/31 03:59:53;;;;;;;17.27;15.68;;;;;;;19.44;66.95;94935.16;5001064;28;20232;-70
2022/08/31 04:02:20;;;;;;;17.70;15.95;;;;;;;18.85;68.63;94935.00;5008122;28;20223;-70
2022/08/31 04:04:50;;;;;;;17.25;15.60;;;;;;;19.03;68.49;94929.06;5007915;28;20288;-70
2022/08/31 04:07:17;;;;;;;18.02;16.02;;;;;;;18.86;69.32;94933.97;5007283;28;20231;-71
2022/08/31 04:09:44;;;;;;;16.95;15.55;;;;;;;19.01;68.89;94944.44;5006267;28;20543;-71
2022/08/31 04:12:09;;;;;;;16.75;15.07;;;;;;;19.29;67.79;94936.19;5011051;28;20286;-70
2022/08/31 04:14:35;;;;;;;17.15;15.32;;;;;;;19.07;68.93;94938.28;5010109;28;20317;-70
2022/08/31 04:17:00;;;;;;;17.50;15.93;;;;;;;19.36;67.51;94937.00;5003964;28;20310;-70
2022/08/31 04:19:26;;;;;;;16.90;15.55;;;;;;;19.32;67.40;94941.09;5005737;28;20605;-70
2022/08/31 04:21:51;;;;;;;17.80;15.90;;;;;;;19.43;67.26;94946.84;5005919;28;20991;-70
2022/08/31 04:24:17;;;;;;;16.10;14.77;;;;;;;18.82;69.41;94937.25;5009573;28;20196;-70
2022/08/31 04:26:43;;;;;;;18.55;16.75;;;;;;;18.52;70.64;94938.44;4999422;28;20586;-70
2022/08/31 04:29:09;;;;;;;18.17;16.52;;;;;;;18.55;70.50;94944.38;4997402;28;20231;-70
2022/08/31 04:31:36;;;;;;;20.50;18.48;;;;;;;18.91;69.08;94946.69;5007119;28;20234;-70
2022/08/31 04:34:02;;;;;;;18.05;15.90;;;;;;;19.11;68.17;94941.34;4999706;28;20295;-70
2022/08/31 04:36:27;;;;;;;18.48;16.67;;;;;;;19.32;67.55;94943.78;4990914;28;20305;-71
2022/08/31 04:38:56;;;;;;;19.20;16.85;;;;;;;19.45;66.97;94945.59;5010025;28;20289;-71
2022/08/31 04:41:25;;;;;;;18.85;16.67;;;;;;;19.59;66.36;94952.56;5005074;28;20219;-69
2022/08/31 04:43:53;;;;;;;18.02;16.33;;;;;;;19.63;66.25;94955.63;5006606;28;20215;-70
2022/08/31 04:46:20;;;;;;;18.25;16.40;;;;;;;19.71;65.75;94949.28;5001167;28;20309;-71
2022/08/31 04:48:45;;;;;;;17.42;15.80;;;;;;;19.81;65.32;94955.81;5006816;28;20210;-71
2022/08/31 04:51:16;;;;;;;17.55;15.95;;;;;;;19.69;65.89;94956.66;5008253;28;20214;-70
2022/08/31 04:53:43;;;;;;;18.58;16.77;;;;;;;20.00;64.96;94953.28;5007072;28;20313;-70
2022/08/31 04:56:18;;;;;;;17.98;16.17;;;;;;;20.08;64.64;94950.38;5007214;28;20241;-71
2022/08/31 04:58:47;;;;;;;16.48;14.90;;;;;;;20.03;64.48;94948.34;5002956;28;20301;-70
2022/08/31 05:01:17;;;;;;;17.80;15.80;;;;;;;19.83;65.30;94945.75;5019217;28;20222;-70
2022/08/31 05:03:43;;;;;;;16.85;15.35;;;;;;;19.93;65.27;94944.47;5005914;28;20218;-71
2022/08/31 05:06:14;;;;;;;17.70;15.75;;;;;;;20.04;64.86;94949.13;4999586;28;20211;-71
2022/08/31 05:08:40;;;;;;;17.67;15.80;;;;;;;19.90;65.05;94951.06;5008076;28;20628;-71
2022/08/31 05:11:15;;;;;;;16.55;14.93;;;;;;;20.02;64.87;94940.53;5008654;28;20280;-71
2022/08/31 05:13:41;;;;;;;16.88;15.13;;;;;;;20.00;64.53;94932.75;5008425;28;20230;-71
2022/08/31 05:16:09;;;;;;;17.10;15.50;;;;;;;20.00;64.58;94940.75;5008090;28;20686;-72
2022/08/31 05:18:39;;;;;;;16.23;14.73;;;;;;;20.10;64.33;94942.13;5004615;28;20246;-71
2022/08/31 05:21:10;;;;;;;15.75;14.30;;;;;;;20.09;64.46;94941.31;5006684;28;20851;-72
2022/08/31 05:23:36;;;;;;;17.05;15.32;;;;;;;20.11;64.32;94935.78;5006412;28;20233;-70
2022/08/31 05:26:01;;;;;;;16.98;15.30;;;;;;;20.12;64.26;94935.56;5007288;28;20222;-72
2022/08/31 05:28:27;;;;;;;16.33;14.82;;;;;;;20.18;64.25;94934.72;5005562;28;20711;-72
2022/08/31 05:30:53;;;;;;;17.02;15.32;;;;;;;20.31;63.73;94939.16;5006537;28;20223;-71
2022/08/31 05:33:18;;;;;;;16.30;14.75;;;;;;;20.37;63.43;94932.13;5008884;28;20202;-72
2022/08/31 05:35:45;;;;;;;16.70;15.00;;;;;;;20.34;63.77;94938.75;5006044;28;20223;-72
2022/08/31 05:38:10;;;;;;;17.63;14.52;;;;;;;20.44;63.09;94923.03;5012089;28;20226;-71
2022/08/31 05:40:36;;;;;;;15.88;14.48;;;;;;;20.31;63.60;94927.66;5009526;28;20233;-70
2022/08/31 05:43:01;;;;;;;16.55;14.40;;;;;;;20.49;63.34;94930.41;5011198;28;20532;-71
2022/08/31 05:45:27;;;;;;;15.30;13.75;;;;;;;20.63;62.77;94921.31;5010201;28;20270;-71
2022/08/31 05:47:52;;;;;;;16.67;14.95;;;;;;;20.61;62.27;94918.06;5008048;28;20218;-71
2022/08/31 05:50:18;;;;;;;16.30;14.80;;;;;;;20.68;62.01;94918.81;5013365;28;20222;-72
2022/08/31 05:52:43;;;;;;;15.50;13.77;;;;;;;20.81;61.86;94914.41;5011889;28;20230;-70
2022/08/31 05:55:10;;;;;;;16.33;13.82;;;;;;;20.85;61.74;94919.09;5013502;28;20291;-70
2022/08/31 05:57:39;;;;;;;15.98;14.57;;;;;;;20.93;61.37;94908.13;5023304;28;20226;-70
2022/08/31 06:00:05;;;;;;;16.33;13.93;;;;;;;20.90;61.48;94916.59;5008085;28;20549;-71
2022/08/31 06:02:31;;;;;;;15.45;13.85;;;;;;;21.05;60.86;94913.59;5007465;28;20227;-70
2022/08/31 06:04:57;;;;;;;14.73;13.20;;;;;;;21.04;61.12;94917.31;5004083;28;20317;-70
2022/08/31 06:07:22;;;;;;;16.00;14.32;;;;;;;21.20;60.52;94907.06;5009231;28;20230;-71
2022/08/31 06:09:48;;;;;;;15.00;13.40;;;;;;;21.33;60.37;94909.59;5009412;28;20218;-71
2022/08/31 06:12:13;;;;;;;14.32;12.88;;;;;;;21.31;60.64;94907.19;5011552;28;20218;-69
2022/08/31 06:14:40;;;;;;;14.43;13.05;;;;;;;21.35;60.46;94903.00;5008774;28;20598;-69
2022/08/31 06:17:06;;;;;;;14.07;12.85;;;;;;;21.44;60.33;94905.41;5007209;28;20723;-68
2022/08/31 06:19:31;;;;;;;14.90;13.23;;;;;;;21.58;59.65;94907.75;5008335;28;20213;-68
2022/08/31 06:21:57;;;;;;;14.70;13.27;;;;;;;21.35;60.22;94899.50;5008596;28;20233;-68
2022/08/31 06:24:23;;;;;;;15.00;13.50;;;;;;;21.42;60.13;94902.97;5009374;28;20202;-68
2022/08/31 06:26:54;;;;;;;14.85;13.55;;;;;;;21.47;60.14;94902.31;5011232;28;20229;-68
2022/08/31 06:32:16;;;;;;;13.88;12.25;;;;;;;21.74;59.43;94892.13;5011128;28;20242;-69
2022/08/31 06:34:42;;;;;;;13.73;12.57;;;;;;;21.74;58.94;94897.47;5027661;28;20233;-69
2022/08/31 06:37:10;;;;;;;14.13;12.68;;;;;;;21.86;58.91;94894.88;5007771;28;20231;-68
2022/08/31 06:39:36;;;;;;;13.45;12.35;;;;;;;21.97;58.97;94905.66;5023872;28;20235;-69
2022/08/31 06:42:02;;;;;;;13.52;12.27;;;;;;;21.97;58.78;94902.13;5009718;28;20206;-68
2022/08/31 06:44:28;;;;;;;13.73;12.30;;;;;;;21.96;58.93;94903.19;5014521;28;20219;-68
2022/08/31 06:46:54;;;;;;;13.35;12.02;;;;;;;21.90;59.07;94904.91;5019968;28;20627;-69
2022/08/31 06:49:19;;;;;;;13.95;12.45;;;;;;;22.10;58.76;94906.50;5010629;28;20345;-69
2022/08/31 06:51:45;;;;;;;13.88;12.30;;;;;;;22.13;58.22;94912.25;5007641;28;20210;-70
2022/08/31 06:54:13;;;;;;;13.27;12.18;;;;;;;22.15;58.00;94904.78;5006637;28;20213;-69
2022/08/31 06:56:38;;;;;;;14.10;12.50;;;;;;;22.17;58.53;94912.59;5009079;28;20230;-67
2022/08/31 06:59:05;;;;;;;13.95;11.75;;;;;;;22.28;57.85;94914.53;5009705;28;20218;-69
2022/08/31 07:01:33;;;;;;;12.80;11.25;;;;;;;22.24;58.28;94916.03;5007619;28;20226;-69
2022/08/31 07:04:01;;;;;;;14.10;12.15;;;;;;;22.32;58.22;94906.84;5008136;28;20234;-69
2022/08/31 07:06:30;;;;;;;14.18;12.43;;;;;;;22.34;57.58;94910.13;5008766;28;20210;-68
2022/08/31 07:08:59;;;;;;;13.80;12.48;;;;;;;22.32;57.27;94921.09;5008494;28;20283;-69
2022/08/31 07:11:45;;;;;;;12.95;11.63;;;;;;;22.42;57.27;94915.16;5006416;28;20223;-68
2022/08/31 07:14:14;;;;;;;13.50;12.30;;;;;;;22.51;57.13;94921.84;5001723;28;20227;-67
2022/08/31 07:16:41;;;;;;;13.50;12.30;;;;;;;22.55;56.82;94914.97;5005159;28;20237;-68
2022/08/31 07:19:07;;;;;;;13.68;12.43;;;;;;;22.63;57.22;94913.84;5006454;28;20246;-69
2022/08/31 07:21:39;;;;;;;13.65;12.35;;;;;;;22.64;57.02;94912.78;5008995;28;20203;-70
2022/08/31 07:24:06;;;;;;;13.60;12.25;;;;;;;22.80;57.18;94911.28;5002729;28;20268;-69
2022/08/31 07:26:37;;;;;;;14.10;12.43;;;;;;;22.92;56.27;94908.66;5008512;28;20854;-70
2022/08/31 07:29:06;;;;;;;13.40;12.00;;;;;;;22.92;56.44;94911.34;5004344;28;20310;-65
2022/08/31 07:31:43;;;;;;;14.27;11.80;;;;;;;22.92;56.11;94916.69;5004255;28;20460;-70
2022/08/31 07:34:11;;;;;;;14.35;13.10;;;;;;;22.97;55.65;94914.16;5007236;28;20221;-68
2022/08/31 07:42:08;;;;;;;13.13;11.73;;;;;;;23.04;55.42;94910.34;4997102;28;20225;-69
2022/08/31 07:42:08;;;;;;;12.75;11.45;;;;;;;23.17;55.23;94913.81;5008821;28;20306;-70
2022/08/31 07:44:34;;;;;;;15.13;12.30;;;;;;;23.22;55.96;94909.38;5006683;28;20329;-67
2022/08/31 07:46:59;;;;;;;14.45;12.63;;;;;;;23.31;55.65;94901.84;5004905;28;20214;-70
2022/08/31 07:49:25;;;;;;;16.65;12.68;;;;;;;23.42;55.26;94910.94;4998763;28;20224;-68
2022/08/31 07:51:50;;;;;;;14.23;12.90;;;;;;;23.43;55.50;94907.19;5005979;28;20302;-68
2022/08/31 07:54:22;;;;;;;13.07;11.88;;;;;;;23.38;54.81;94899.81;5006919;28;20210;-65
2022/08/31 07:56:49;;;;;;;13.68;12.35;;;;;;;23.58;55.42;94899.47;4988872;28;20266;-68
2022/08/31 07:59:18;;;;;;;12.32;10.48;;;;;;;23.75;53.98;94910.31;5007141;28;20218;-69
2022/08/31 08:01:45;;;;;;;12.65;11.45;;;;;;;23.77;53.96;94908.22;5010807;28;20222;-66
2022/08/31 08:04:20;;;;;;;12.90;11.75;;;;;;;23.81;53.46;94904.00;5006101;28;21545;-71
2022/08/31 08:06:47;;;;;;;13.30;11.85;;;;;;;23.91;53.53;94895.34;5006257;28;20206;-71
2022/08/31 08:09:13;;;;;;;12.60;11.50;;;;;;;23.91;53.54;94898.84;5005891;28;20217;-70
2022/08/31 08:11:43;;;;;;;11.30;10.30;;;;;;;23.96;53.34;94901.63;5007750;28;20223;-69
2022/08/31 08:14:11;;;;;;;11.73;10.60;;;;;;;24.15;52.81;94888.84;5005187;28;20284;-69
2022/08/31 08:16:36;;;;;;;13.65;10.52;;;;;;;24.18;52.33;94899.09;5008741;28;20462;-70
2022/08/31 08:19:02;;;;;;;11.20;10.07;;;;;;;24.08;52.39;94893.53;5005911;28;20234;-69
2022/08/31 08:21:28;;;;;;;11.65;10.68;;;;;;;24.05;52.67;94891.31;5009294;28;20222;-70
2022/08/31 08:23:54;;;;;;;12.25;10.48;;;;;;;24.31;52.39;94892.63;5000258;28;20223;-71
2022/08/31 08:26:20;;;;;;;12.88;10.48;;;;;;;24.36;52.20;94890.03;5006643;28;20305;-70
2022/08/31 08:28:45;;;;;;;11.55;10.45;;;;;;;24.45;52.09;94890.47;5002734;28;20330;-70
2022/08/31 08:31:14;;;;;;;12.27;10.40;;;;;;;24.31;52.35;94895.31;5008761;28;20234;-66
2022/08/31 08:33:40;;;;;;;11.13;10.13;;;;;;;24.40;52.53;94893.03;5007415;28;20218;-65
2022/08/31 08:36:06;;;;;;;11.27;10.35;;;;;;;24.80;51.14;94889.47;5006982;28;20198;-68
2022/08/31 08:38:33;;;;;;;11.63;10.52;;;;;;;24.88;50.32;94883.69;4991198;28;20227;-69
2022/08/31 08:41:00;;;;;;;10.82;9.75;;;;;;;24.92;49.96;94892.09;5007623;28;20662;-70
2022/08/31 08:43:32;;;;;;;11.48;9.80;;;;;;;25.00;49.13;94883.63;5006732;28;20230;-67
2022/08/31 08:46:01;;;;;;;11.63;10.50;;;;;;;24.95;49.40;94880.84;5008532;28;20276;-70
2022/08/31 08:48:30;;;;;;;10.65;9.65;;;;;;;24.89;49.69;94879.97;5023362;28;20207;-69
2022/08/31 08:50:56;;;;;;;10.02;9.02;;;;;;;25.03;49.20;94872.38;5008198;28;20234;-69
2022/08/31 08:53:27;;;;;;;10.50;9.60;;;;;;;25.06;49.74;94880.75;5007562;28;20274;-68
2022/08/31 08:55:53;;;;;;;10.63;9.60;;;;;;;25.21;48.93;94882.09;5007788;28;20231;-70
2022/08/31 08:58:18;;;;;;;12.35;9.80;;;;;;;25.33;48.20;94865.84;5005410;28;20238;-68
2022/08/31 09:00:53;;;;;;;11.15;9.15;;;;;;;25.42;47.24;94862.47;5006298;28;20213;-68
2022/08/31 09:03:29;;;;;;;11.40;10.32;;;;;;;25.41;48.08;94860.84;5005223;28;20206;-69
2022/08/31 09:06:13;;;;;;;10.25;8.93;;;;;;;25.58;46.88;94855.44;5008550;28;20230;-69
2022/08/31 09:08:53;;;;;;;11.65;9.82;;;;;;;25.44;46.42;94854.13;5009750;28;20230;-69
2022/08/31 09:11:31;;;;;;;10.38;8.57;;;;;;;25.72;46.08;94850.47;5004836;28;20231;-70
2022/08/31 09:14:09;;;;;;;12.45;8.90;;;;;;;25.86;45.19;94843.66;5009671;28;20772;-66
2022/08/31 09:16:47;;;;;;;10.30;9.10;;;;;;;26.03;45.65;94845.47;5004678;28;20238;-68
2022/08/31 09:19:16;;;;;;;9.65;8.85;;;;;;;26.01;45.20;94837.66;5008441;28;20238;-67
2022/08/31 09:21:45;;;;;;;10.68;9.73;;;;;;;26.24;45.22;94839.22;5008940;28;20233;-66
2022/08/31 09:24:15;;;;;;;9.85;8.85;;;;;;;26.34;44.77;94835.84;5012982;28;20203;-66
2022/08/31 09:27:16;;;;;;;11.07;9.82;;;;;;;26.36;44.87;94833.69;5006588;28;20239;-66
2022/08/31 09:29:43;;;;;;;11.68;9.20;;;;;;;26.38;44.19;94834.25;5010096;28;20278;-66
2022/08/31 09:32:15;;;;;;;9.45;8.60;;;;;;;26.47;43.71;94835.41;5004578;28;20699;-66
2022/08/31 09:34:41;;;;;;;10.05;8.60;;;;;;;26.63;43.70;94828.31;5005686;28;20230;-66
2022/08/31 09:37:18;;;;;;;10.45;9.27;;;;;;;26.80;43.45;94833.56;5009364;28;20230;-66
2022/08/31 09:39:49;;;;;;;10.60;9.15;;;;;;;26.81;43.10;94827.94;5009353;28;20217;-66
2022/08/31 09:42:18;;;;;;;10.25;9.18;;;;;;;26.72;42.93;94824.06;5013859;28;20202;-66
2022/08/31 09:44:48;;;;;;;10.48;9.45;;;;;;;26.68;43.58;94817.56;5010540;28;20232;-67
2022/08/31 09:47:54;;;;;;;10.93;8.85;;;;;;;26.77;43.94;94812.50;5009278;28;20229;-66
2022/08/31 09:50:24;;;;;;;10.27;9.27;;;;;;;26.86;43.15;94802.84;4972512;28;20231;-66
2022/08/31 09:55:33;;;;;;;10.65;9.57;;;;;;;26.90;43.97;94789.69;4986038;28;20238;-66
2022/08/31 09:58:06;;;;;;;10.25;9.38;;;;;;;26.98;43.25;94787.31;4972583;28;20240;-65
2022/08/31 10:00:40;;;;;;;10.15;8.80;;;;;;;27.09;41.52;94784.66;4971842;28;20214;-66
2022/08/31 10:03:20;;;;;;;10.10;9.20;;;;;;;27.04;42.61;94771.94;4966374;28;20266;-66
2022/08/31 10:05:48;;;;;;;9.65;8.77;;;;;;;27.21;42.13;94779.91;4966950;28;20267;-66
2022/08/31 10:08:56;;;;;;;11.75;10.27;;;;;;;27.42;41.86;94778.91;4975024;28;20228;-66
2022/08/31 10:11:25;;;;;;;10.48;9.57;;;;;;;27.49;40.91;94776.00;4916367;29;20786;-67
2022/08/31 10:13:57;;;;;;;10.30;8.98;;;;;;;27.50;41.02;94785.72;4914361;29;20722;-67
2022/08/31 10:16:40;;;;;;;12.25;9.45;;;;;;;27.64;40.17;94783.31;4914786;29;20233;-66
2022/08/31 10:19:12;;;;;;;10.30;9.32;;;;;;;27.72;40.61;94777.44;4916276;29;20243;-65
2022/08/31 10:21:43;;;;;;;10.00;8.90;;;;;;;27.99;40.41;94774.56;4932320;29;20217;-66
2022/08/31 10:24:09;;;;;;;10.00;8.40;;;;;;;28.14;39.62;94768.38;4914502;29;20386;-66
2022/08/31 10:26:41;;;;;;;9.88;8.90;;;;;;;28.28;38.74;94757.84;4932284;29;20344;-66
2022/08/31 10:29:21;;;;;;;8.27;7.63;;;;;;;28.31;36.66;94758.13;4932283;29;20228;-66
2022/08/31 10:31:50;;;;;;;9.55;8.57;;;;;;;28.37;37.39;94751.63;4931151;29;20419;-66
2022/08/31 10:37:31;;;;;;;13.98;9.85;;;;;;;28.49;38.75;94737.88;4935384;29;20789;-67
2022/08/31 10:40:05;;;;;;;9.45;8.55;;;;;;;28.53;37.37;94743.56;4878986;29;20294;-67
2022/08/31 10:42:37;;;;;;;9.63;8.15;;;;;;;28.53;38.91;94738.97;4879770;29;20269;-66
2022/08/31 10:45:24;;;;;;;12.40;10.20;;;;;;;28.28;39.71;94742.44;4895157;29;20237;-67
2022/08/31 10:47:53;;;;;;;12.73;9.60;;;;;;;27.70;40.85;94758.78;4890916;29;21553;-68
2022/08/31 10:50:51;;;;;;;11.95;9.10;;;;;;;27.13;41.95;94766.88;4894629;29;20232;-67
2022/08/31 10:53:54;;;;;;;10.73;9.15;;;;;;;26.61;43.14;94774.63;4869855;29;20235;-66
2022/08/31 10:56:57;;;;;;;11.25;8.52;;;;;;;26.10;44.53;94774.16;4859558;29;20259;-65
2022/08/31 11:00:40;;;;;;;14.13;8.52;;;;;;;25.91;44.93;94773.69;4872874;29;20227;-66
2022/08/31 11:03:03;;;;;;;10.98;8.90;;;;;;;25.82;45.57;94777.88;4871299;29;20239;-66
2022/08/31 11:05:39;;;;;;;12.05;9.57;;;;;;;25.78;44.93;94782.16;4856123;29;20230;-66
2022/08/31 11:08:52;;;;;;;10.70;8.50;;;;;;;25.29;45.93;94784.78;4873389;29;20226;-66
2022/08/31 11:11:34;;;;;;;14.15;8.82;;;;;;;25.40;46.84;94783.84;4843003;29;20232;-66
2022/08/31 11:14:43;;;;;;;14.20;9.02;;;;;;;25.30;46.19;94784.53;4835972;29;20259;-66
2022/08/31 11:17:30;;;;;;;10.65;9.27;;;;;;;25.09;46.62;94796.03;4839348;29;20310;-66
2022/08/31 11:20:08;;;;;;;14.32;9.48;;;;;;;24.68;47.82;94808.09;4856817;29;20239;-66
2022/08/31 11:23:04;;;;;;;10.65;9.50;;;;;;;24.97;46.85;94812.31;4850078;29;20275;-66
2022/08/31 11:25:36;;;;;;;12.27;10.25;;;;;;;24.92;46.82;94806.84;4854700;29;20250;-66
2022/08/31 11:28:32;;;;;;;15.13;10.57;;;;;;;24.86;47.09;94805.16;4864372;29;20694;-65
2022/08/31 11:31:01;;;;;;;11.73;9.90;;;;;;;24.65;46.97;94798.63;4908522;28;20328;-68
2022/08/31 11:33:28;;;;;;;14.85;10.75;;;;;;;24.60;47.06;94796.66;4925037;28;20205;-67
2022/08/31 11:36:08;;;;;;;12.45;11.05;;;;;;;24.52;47.03;94790.91;4923873;28;20323;-67
2022/08/31 11:39:06;;;;;;;12.38;10.32;;;;;;;24.51;46.29;94789.25;4922881;28;20264;-67
2022/08/31 11:41:31;;;;;;;10.70;9.80;;;;;;;24.55;46.79;94785.03;4869291;29;20317;-67
2022/08/31 11:44:00;;;;;;;13.02;10.73;;;;;;;24.49;46.42;94789.50;4884182;29;20735;-67
2022/08/31 11:46:25;;;;;;;10.32;9.35;;;;;;;24.49;46.69;94791.38;4868392;29;20504;-66